Wetter

Nordholz:

METAR:

2019/03/20 15:20 ETMN 201520Z 26012KT 2200 BR OVC002 09/08 Q1031 AMB GRN TEMPO AMB

TAF:

2019/03/20 15:30 TAF ETMN 201409Z 2015/2024 23005KT 4000 BR SCT005 BKN007 TEMPO 2015/2024 24010KT 2000 DZRA BKN002

Wind EDXN:

20.03. 14:00z 240/09G17kt
20.03. 14:10z 230/11G17kt
20.03. 14:20z 230/12G18kt
20.03. 14:30z 230/12G17kt
20.03. 14:40z 240/11G17kt
20.03. 14:50z 240/11G17kt
20.03. 15:00z 240/12G18kt
20.03. 15:10z 240/13G18kt
20.03. 15:20z 240/13G18kt
20.03. 15:30z 240/12G17kt

Bremen:

METAR:

2019/03/20 15:20 EDDW 201520Z 24010KT 9999 BKN017 10/08 Q1032 NOSIG

TAF:

2019/03/20 12:33 TAF EDDW 201100Z 2012/2112 24011KT 9999 BKN020 BECMG 2014/2016 25006KT BKN012 TEMPO 2014/2018 BKN007 BECMG 2018/2020 BKN007 TEMPO 2018/2109 3500 -DZ BR PROB30 TEMPO 2020/2109 BKN004 BECMG 2108/2110 BKN012 BECMG 2110/2112 BKN025

Hamburg:

METAR:

2019/03/20 15:20 EDDH 201520Z 25010KT 7000 BKN011 10/07 Q1031 NOSIG

TAF:

2019/03/20 13:13 TAF AMD EDDH 201302Z 2013/2118 24011KT 9999 BKN015 BECMG 2013/2015 25006KT BKN012 TEMPO 2014/2018 BKN007 BECMG 2018/2020 BKN007 TEMPO 2018/2109 3500 -DZ BR PROB30 TEMPO 2020/2109 BKN004 BECMG 2108/2110 BKN012 BECMG 2110/2112 BKN025

Hannover:

METAR:

2019/03/20 15:20 EDDV 201520Z 25009KT 9999 OVC035 12/04 Q1032 NOSIG

TAF:

2019/03/20 12:37 TAF EDDV 201100Z 2012/2112 24011KT 9999 BKN025 BECMG 2013/2015 24005KT BECMG 2103/2105 BKN014 BECMG 2108/2110 BKN025

Wikipedia Artikel: METARTAF

Daten von Aviation Weather Center der NOAA, es kann keine Garantie für Aktualität und Richtigkeit der Daten übernommen werden.

Die Nutzung dieser Daten zur Flugplanung ist nicht zulässig!

Inoffizielle ATIS 🙂